createdAt,value
2019-01-18T00:00:33.466Z,74.50
2019-01-18T00:06:02.957Z,74.30
2019-01-18T00:11:32.260Z,74.30
2019-01-18T00:17:01.794Z,74.40
2019-01-18T00:22:31.132Z,74.10
2019-01-18T00:28:00.527Z,74.00
2019-01-18T00:33:30.045Z,73.90
2019-01-18T00:38:59.362Z,73.80
2019-01-18T00:44:28.708Z,73.90
2019-01-18T00:49:58.413Z,73.80
2019-01-18T00:55:27.704Z,73.70
2019-01-18T01:00:57.103Z,73.70
2019-01-18T01:06:26.510Z,73.70
2019-01-18T01:11:56.031Z,73.90
2019-01-18T01:17:25.492Z,74.30
2019-01-18T01:22:55.094Z,75.10
2019-01-18T01:28:24.541Z,76.40
2019-01-18T01:33:53.860Z,76.60
2019-01-18T01:39:23.204Z,76.60
2019-01-18T01:44:52.525Z,77.30
2019-01-18T01:50:24.754Z,76.80
2019-01-18T01:55:54.090Z,76.60
2019-01-18T02:01:23.436Z,76.30
2019-01-18T02:06:52.776Z,76.00
2019-01-18T02:12:22.199Z,75.80
2019-01-18T02:17:51.613Z,75.60
2019-01-18T02:23:21.185Z,75.30
2019-01-18T02:28:50.480Z,75.30
2019-01-18T02:34:19.814Z,75.10
2019-01-18T02:39:49.123Z,75.00
2019-01-18T02:45:21.599Z,74.90
2019-01-18T02:50:51.072Z,74.80
2019-01-18T02:56:20.443Z,74.80
2019-01-18T03:01:49.899Z,74.60
2019-01-18T03:07:19.620Z,74.60
2019-01-18T03:12:49.170Z,74.60
2019-01-18T03:18:18.473Z,74.30
2019-01-18T03:23:47.799Z,74.20
2019-01-18T03:29:17.178Z,74.00
2019-01-18T03:34:46.547Z,74.00
2019-01-18T03:40:19.076Z,73.90
2019-01-18T03:45:48.482Z,73.70
2019-01-18T03:51:17.876Z,73.60
2019-01-18T03:56:47.314Z,73.30
2019-01-18T04:02:16.665Z,73.20
2019-01-18T04:07:46.121Z,73.10
2019-01-18T04:13:15.604Z,73.10
2019-01-18T04:18:45.014Z,73.10
2019-01-18T04:24:14.433Z,73.00
2019-01-18T04:29:43.833Z,72.80
2019-01-18T04:35:14.076Z,72.30
2019-01-18T04:40:43.419Z,72.00
2019-01-18T04:46:12.963Z,71.70
2019-01-18T04:51:42.335Z,71.60
2019-01-18T04:57:12.099Z,71.30
2019-01-18T05:02:41.918Z,71.30
2019-01-18T05:08:11.437Z,71.10
2019-01-18T05:13:41.069Z,71.00
2019-01-18T05:19:11.249Z,70.80
2019-01-18T05:24:40.950Z,70.90
2019-01-18T05:30:27.514Z,70.50
2019-01-18T05:35:56.963Z,70.60
2019-01-18T05:41:26.367Z,70.40
2019-01-18T05:46:55.737Z,70.40
2019-01-18T05:52:25.068Z,70.40
2019-01-18T05:57:54.642Z,70.40
2019-01-18T06:03:24.005Z,70.10
2019-01-18T06:08:53.329Z,70.00
2019-01-18T06:14:22.902Z,69.90
2019-01-18T06:19:52.258Z,69.80
2019-01-18T06:25:21.611Z,69.60
2019-01-18T06:30:51.948Z,69.70
2019-01-18T06:36:21.385Z,69.80
2019-01-18T06:41:51.058Z,70.00
2019-01-18T06:47:20.619Z,70.00
2019-01-18T06:52:49.941Z,70.00
2019-01-18T06:58:19.291Z,70.00
2019-01-18T07:03:48.684Z,69.70
2019-01-18T07:09:18.097Z,69.50
2019-01-18T07:14:47.446Z,69.50
2019-01-18T07:20:21.407Z,69.40
2019-01-18T07:25:50.741Z,69.30
2019-01-18T07:31:20.158Z,69.10
2019-01-18T07:36:49.484Z,68.80
2019-01-18T07:42:18.873Z,68.60
2019-01-18T07:47:48.417Z,68.20
2019-01-18T07:53:17.933Z,68.20
2019-01-18T07:58:47.408Z,68.30
2019-01-18T08:04:16.730Z,68.20
2019-01-18T08:09:46.047Z,68.20
2019-01-18T08:15:20.231Z,68.40
2019-01-18T08:20:49.659Z,68.30
2019-01-18T08:26:19.137Z,68.20
2019-01-18T08:31:48.453Z,68.00
2019-01-18T08:37:17.832Z,68.10
2019-01-18T08:42:47.320Z,67.50
2019-01-18T08:48:16.688Z,67.40
2019-01-18T08:53:46.090Z,67.10
2019-01-18T08:59:15.704Z,66.60
2019-01-18T09:04:45.126Z,66.60
2019-01-18T09:10:17.950Z,66.70
2019-01-18T09:15:47.274Z,66.50
2019-01-18T09:21:16.585Z,66.80
2019-01-18T09:26:46.067Z,67.50
2019-01-18T09:32:15.475Z,66.30
2019-01-18T09:37:45.599Z,66.30
2019-01-18T09:43:15.046Z,66.50
2019-01-18T09:48:44.346Z,66.50
2019-01-18T09:54:13.815Z,66.20
2019-01-18T09:59:43.296Z,66.30
2019-01-18T10:05:13.551Z,67.10
2019-01-18T10:10:43.124Z,66.50
2019-01-18T10:16:12.510Z,66.40
2019-01-18T10:21:42.092Z,66.70
2019-01-18T10:27:11.454Z,66.50
2019-01-18T10:32:44.809Z,66.60
2019-01-18T10:38:15.368Z,67.10
2019-01-18T10:43:45.560Z,67.40
2019-01-18T10:49:16.905Z,68.00
2019-01-18T10:54:47.487Z,67.10
2019-01-18T11:00:22.042Z,66.80
2019-01-18T11:05:51.616Z,67.00
2019-01-18T11:11:21.126Z,65.70
2019-01-18T11:16:53.180Z,65.40
2019-01-18T11:22:26.052Z,65.10
2019-01-18T11:27:55.772Z,64.50
2019-01-18T11:33:25.175Z,64.40
2019-01-18T11:38:54.628Z,64.50
2019-01-18T11:44:24.096Z,65.30
2019-01-18T11:49:53.521Z,64.90
2019-01-18T11:55:23.099Z,65.00
2019-01-18T12:00:52.403Z,65.90
2019-01-18T12:06:21.876Z,65.40
2019-01-18T12:11:51.372Z,65.00
2019-01-18T12:17:20.875Z,65.20
2019-01-18T12:22:50.365Z,65.50
2019-01-18T12:28:19.716Z,65.40
2019-01-18T12:33:49.097Z,65.20
2019-01-18T12:39:18.634Z,65.20
2019-01-18T12:44:54.895Z,65.20
2019-01-18T12:50:41.446Z,65.20
2019-01-18T12:56:10.998Z,65.00
2019-01-18T13:01:40.551Z,65.30
2019-01-18T13:07:10.062Z,65.30
2019-01-18T13:12:39.467Z,64.90
2019-01-18T13:18:08.965Z,64.40
2019-01-18T13:23:38.365Z,64.10
2019-01-18T13:29:08.614Z,63.80
2019-01-18T13:34:38.107Z,63.60
2019-01-18T13:40:24.184Z,64.70
2019-01-18T13:45:53.712Z,63.50
2019-01-18T13:51:23.055Z,63.50
2019-01-18T13:56:52.540Z,63.10
2019-01-18T14:02:22.032Z,63.10
2019-01-18T14:07:53.434Z,62.70
2019-01-18T14:13:22.561Z,62.80
2019-01-18T14:18:51.974Z,61.30
2019-01-18T14:24:21.374Z,58.50
2019-01-18T14:29:50.708Z,58.20
2019-01-18T14:35:22.194Z,58.70
2019-01-18T14:40:52.582Z,58.80
2019-01-18T14:46:21.900Z,59.70
2019-01-18T14:51:52.352Z,60.50
2019-01-18T14:57:23.151Z,61.40
2019-01-18T15:02:52.921Z,61.50
2019-01-18T15:08:24.348Z,61.90
2019-01-18T15:13:53.481Z,62.50
2019-01-18T15:19:23.559Z,62.90
2019-01-18T15:24:54.888Z,63.10
2019-01-18T15:30:30.729Z,63.30
2019-01-18T15:36:01.112Z,63.60
2019-01-18T15:41:30.719Z,63.90
2019-01-18T15:47:00.419Z,64.00
2019-01-18T15:52:29.979Z,64.40
2019-01-18T15:57:59.510Z,64.60
2019-01-18T16:03:30.919Z,65.00
2019-01-18T16:09:00.293Z,65.20
2019-01-18T16:14:30.364Z,65.30
2019-01-18T16:20:03.464Z,65.50
2019-01-18T16:25:37.464Z,65.70
2019-01-18T16:31:09.993Z,65.80
2019-01-18T16:36:43.315Z,66.00
2019-01-18T16:42:14.086Z,66.20
2019-01-18T16:47:45.599Z,66.30
2019-01-18T16:53:15.571Z,66.50
2019-01-18T16:58:46.261Z,66.70
2019-01-18T17:04:17.837Z,66.80
2019-01-18T17:09:53.059Z,66.80
2019-01-18T17:15:26.577Z,66.90
2019-01-18T17:20:58.847Z,67.10
2019-01-18T17:26:28.378Z,67.20
2019-01-18T17:31:59.560Z,67.30
2019-01-18T17:37:33.035Z,67.40
2019-01-18T17:43:26.594Z,67.50
2019-01-18T17:49:06.723Z,67.70
2019-01-18T17:54:57.094Z,67.70
2019-01-18T18:00:40.609Z,67.80
2019-01-18T18:06:34.052Z,67.90
2019-01-18T18:12:46.629Z,68.00
2019-01-18T18:18:37.189Z,68.10
2019-01-18T18:24:33.297Z,68.10
2019-01-18T18:30:28.303Z,68.10
2019-01-18T18:36:29.887Z,68.20
2019-01-18T18:42:36.355Z,68.30
2019-01-18T18:48:33.012Z,68.20
2019-01-18T18:54:40.626Z,68.30
2019-01-18T19:00:17.375Z,68.40
2019-01-18T19:06:32.079Z,68.30
2019-01-18T19:12:21.436Z,68.50
2019-01-18T19:18:15.361Z,68.50
2019-01-18T19:24:01.365Z,68.60
2019-01-18T19:29:53.199Z,68.70
2019-01-18T19:35:58.884Z,68.80
2019-01-18T19:41:41.885Z,68.90
2019-01-18T19:47:26.069Z,69.00
2019-01-18T19:53:30.397Z,69.10
2019-01-18T19:59:37.045Z,69.10
2019-01-18T20:05:28.039Z,69.20
2019-01-18T20:11:22.419Z,69.20
2019-01-18T20:17:09.423Z,69.20
2019-01-18T20:23:11.529Z,69.40
2019-01-18T20:29:13.026Z,69.40
2019-01-18T20:35:32.766Z,69.50
2019-01-18T20:41:41.413Z,69.50
2019-01-18T20:47:36.823Z,69.60
2019-01-18T20:53:34.876Z,69.60
2019-01-18T20:59:36.187Z,69.70
2019-01-18T21:05:17.727Z,69.80
2019-01-18T21:11:09.767Z,70.50
2019-01-18T21:16:52.394Z,70.00
2019-01-18T21:22:55.926Z,70.00
2019-01-18T21:28:58.290Z,70.00
2019-01-18T21:34:56.135Z,70.10
2019-01-18T21:40:42.689Z,70.10
2019-01-18T21:46:25.718Z,70.20
2019-01-18T21:52:34.373Z,70.20
2019-01-18T21:58:23.256Z,70.20
2019-01-18T22:04:17.123Z,70.30
2019-01-18T22:10:06.295Z,70.50
2019-01-18T22:16:02.556Z,70.40
2019-01-18T22:22:23.539Z,70.60
2019-01-18T22:28:11.627Z,70.70
2019-01-18T22:33:51.218Z,70.70
2019-01-18T22:39:40.016Z,70.70
2019-01-18T22:45:19.637Z,71.00
2019-01-18T22:50:53.833Z,71.40
2019-01-18T22:56:45.762Z,71.30
2019-01-18T23:02:25.903Z,71.30
2019-01-18T23:08:28.873Z,71.40
2019-01-18T23:14:14.852Z,71.50
2019-01-18T23:20:10.274Z,71.50
2019-01-18T23:25:56.483Z,71.60
2019-01-18T23:32:06.550Z,71.60
2019-01-18T23:37:49.286Z,71.70
2019-01-18T23:43:23.402Z,71.80
2019-01-18T23:49:18.365Z,71.80
2019-01-18T23:55:00.007Z,71.80
